createdAt,value
2022-08-12T00:00:09.218Z,2.20
2022-08-12T00:02:55.016Z,1.88
2022-08-12T00:06:01.794Z,2.17
2022-08-12T00:08:52.983Z,1.80
2022-08-12T00:11:39.832Z,2.20
2022-08-12T00:14:25.352Z,2.10
2022-08-12T00:17:11.576Z,2.40
2022-08-12T00:19:57.236Z,1.90
2022-08-12T00:22:43.274Z,2.00
2022-08-12T00:26:05.661Z,2.30
2022-08-12T00:28:35.545Z,1.88
2022-08-12T00:31:21.318Z,1.77
2022-08-12T00:34:06.889Z,2.15
2022-08-12T00:36:52.476Z,1.90
2022-08-12T00:39:38.783Z,2.20
2022-08-12T00:42:12.103Z,1.80
2022-08-12T00:44:42.454Z,2.40
2022-08-12T00:47:24.678Z,1.88
2022-08-12T00:49:55.141Z,2.00
2022-08-12T00:52:23.414Z,2.10
2022-08-12T00:54:59.038Z,2.10
2022-08-12T00:57:31.659Z,2.25
2022-08-12T01:00:11.157Z,2.30
2022-08-12T01:02:41.222Z,2.05
2022-08-12T01:05:32.373Z,2.00
2022-08-12T01:08:18.557Z,2.08
2022-08-12T01:11:06.187Z,2.28
2022-08-12T01:13:36.198Z,1.95
2022-08-12T01:16:06.213Z,2.10
2022-08-12T01:18:36.163Z,2.08
2022-08-12T01:21:09.236Z,2.10
2022-08-12T01:23:57.673Z,1.85
2022-08-12T01:26:25.313Z,1.90
2022-08-12T01:28:58.534Z,2.00
2022-08-12T01:31:27.130Z,2.00
2022-08-12T01:34:33.407Z,2.00
2022-08-12T01:36:57.890Z,2.00
2022-08-12T01:40:33.510Z,1.90
2022-08-12T01:43:08.811Z,2.10
2022-08-12T01:45:59.542Z,2.05
2022-08-12T01:48:35.150Z,2.35
2022-08-12T01:52:12.621Z,2.30
2022-08-12T01:54:14.046Z,2.30
2022-08-12T01:56:49.343Z,1.75
2022-08-12T01:59:43.950Z,2.30
2022-08-12T02:02:17.366Z,2.00
2022-08-12T02:05:23.325Z,1.85
2022-08-12T02:08:33.442Z,2.10
2022-08-12T02:11:22.739Z,2.20
2022-08-12T02:14:13.620Z,2.50
2022-08-12T02:17:02.387Z,2.13
2022-08-12T02:19:42.566Z,2.03
2022-08-12T02:22:31.416Z,2.17
2022-08-12T02:25:25.699Z,2.00
2022-08-12T02:27:55.467Z,2.33
2022-08-12T02:30:35.341Z,1.90
2022-08-12T02:33:10.694Z,2.45
2022-08-12T02:35:39.776Z,1.90
2022-08-12T02:38:09.498Z,1.85
2022-08-12T02:40:39.648Z,1.95
2022-08-12T02:43:19.954Z,1.98
2022-08-12T02:46:01.727Z,1.95
2022-08-12T02:48:35.733Z,1.88
2022-08-12T02:51:06.769Z,2.40
2022-08-12T02:53:35.860Z,1.88
2022-08-12T02:56:03.442Z,2.10
2022-08-12T02:58:35.639Z,2.08
2022-08-12T03:01:11.557Z,1.70
2022-08-12T03:03:41.429Z,2.00
2022-08-12T03:06:22.765Z,1.80
2022-08-12T03:08:54.599Z,2.20
2022-08-12T03:11:54.695Z,2.20
2022-08-12T03:14:25.332Z,1.63
2022-08-12T03:17:09.559Z,1.70
2022-08-12T03:20:10.609Z,2.20
2022-08-12T03:22:29.818Z,2.20
2022-08-12T03:25:02.079Z,2.10
2022-08-12T03:27:30.267Z,2.03
2022-08-12T03:29:58.459Z,2.20
2022-08-12T03:32:45.644Z,2.28
2022-08-12T03:35:38.362Z,2.40
2022-08-12T03:38:09.654Z,2.87
2022-08-12T03:41:24.091Z,2.40
2022-08-12T03:44:35.418Z,2.50
2022-08-12T03:47:32.506Z,2.35
2022-08-12T03:50:18.410Z,2.10
2022-08-12T03:53:03.962Z,1.80
2022-08-12T03:55:49.522Z,2.20
2022-08-12T03:58:35.406Z,2.00
2022-08-12T04:01:02.538Z,1.80
2022-08-12T04:03:49.005Z,2.22
2022-08-12T04:06:16.259Z,2.03
2022-08-12T04:09:01.323Z,1.90
2022-08-12T04:11:47.458Z,2.00
2022-08-12T04:14:20.808Z,1.98
2022-08-12T04:16:49.268Z,2.17
2022-08-12T04:19:17.672Z,2.08
2022-08-12T04:22:01.270Z,2.20
2022-08-12T04:24:35.353Z,1.83
2022-08-12T04:27:05.799Z,2.17
2022-08-12T04:30:17.182Z,1.77
2022-08-12T04:32:21.491Z,2.05
2022-08-12T04:34:48.606Z,2.28
2022-08-12T04:37:16.739Z,2.83
2022-08-12T04:39:45.996Z,3.10
2022-08-12T04:42:13.233Z,3.53
2022-08-12T04:44:40.422Z,3.00
2022-08-12T04:47:11.188Z,2.50
2022-08-12T04:49:39.650Z,2.40
2022-08-12T04:52:07.038Z,2.30
2022-08-12T04:54:34.798Z,2.60
2022-08-12T04:57:04.366Z,2.70
2022-08-12T04:59:47.193Z,2.70
2022-08-12T05:02:20.594Z,2.10
2022-08-12T05:04:52.154Z,2.40
2022-08-12T05:07:20.794Z,2.38
2022-08-12T05:10:00.962Z,2.60
2022-08-12T05:12:36.951Z,2.25
2022-08-12T05:15:18.952Z,2.65
2022-08-12T05:17:52.773Z,2.20
2022-08-12T05:20:22.769Z,2.40
2022-08-12T05:22:53.058Z,2.58
2022-08-12T05:25:25.136Z,2.42
2022-08-12T05:27:55.357Z,1.90
2022-08-12T05:30:29.592Z,1.85
2022-08-12T05:33:00.507Z,1.75
2022-08-12T05:35:28.140Z,2.45
2022-08-12T05:38:15.150Z,2.13
2022-08-12T05:40:42.275Z,1.75
2022-08-12T05:43:09.308Z,4.07
2022-08-12T05:45:39.227Z,2.60
2022-08-12T05:48:08.598Z,3.45
2022-08-12T05:50:35.776Z,2.63
2022-08-12T05:53:02.899Z,2.60
2022-08-12T05:55:31.531Z,3.95
2022-08-12T05:57:58.935Z,4.00
2022-08-12T06:00:26.925Z,4.03
2022-08-12T06:02:57.215Z,4.35
2022-08-12T06:05:24.282Z,3.90
2022-08-12T06:08:02.018Z,8.73
2022-08-12T06:10:33.465Z,2.33
2022-08-12T06:13:02.578Z,3.10
2022-08-12T06:15:30.502Z,3.00
2022-08-12T06:18:14.186Z,4.50
2022-08-12T06:20:43.994Z,2.75
2022-08-12T06:23:12.088Z,1.90
2022-08-12T06:25:39.187Z,1.83
2022-08-12T06:28:17.624Z,2.97
2022-08-12T06:30:57.315Z,2.03
2022-08-12T06:34:00.934Z,2.10
2022-08-12T06:36:29.432Z,2.90
2022-08-12T06:38:57.529Z,2.42
2022-08-12T06:42:02.746Z,2.30
2022-08-12T06:44:30.105Z,2.80
2022-08-12T06:46:58.388Z,3.53
2022-08-12T06:49:25.687Z,3.10
2022-08-12T06:51:56.822Z,2.50
2022-08-12T06:54:31.868Z,1.90
2022-08-12T06:57:05.399Z,2.50
2022-08-12T06:59:51.236Z,3.03
2022-08-12T07:02:22.732Z,2.30
2022-08-12T07:04:50.136Z,2.38
2022-08-12T07:07:18.568Z,2.17
2022-08-12T07:10:06.706Z,2.28
2022-08-12T07:12:32.651Z,2.30
2022-08-12T07:15:02.078Z,2.35
2022-08-12T07:17:37.702Z,1.85
2022-08-12T07:20:20.146Z,2.10
2022-08-12T07:23:03.216Z,2.30
2022-08-12T07:25:41.051Z,2.13
2022-08-12T07:28:24.960Z,2.30
2022-08-12T07:30:54.400Z,2.30
2022-08-12T07:33:26.647Z,2.35
2022-08-12T07:35:57.737Z,2.38
2022-08-12T07:38:40.357Z,1.90
2022-08-12T07:41:21.987Z,2.08
2022-08-12T07:43:53.139Z,1.85
2022-08-12T07:46:36.718Z,2.60
2022-08-12T07:49:08.513Z,1.88
2022-08-12T07:51:36.248Z,2.22
2022-08-12T07:54:09.393Z,2.22
2022-08-12T07:56:38.500Z,2.65
2022-08-12T07:59:08.688Z,2.72
2022-08-12T08:01:38.275Z,2.50
2022-08-12T08:04:25.639Z,2.20
2022-08-12T08:06:52.797Z,2.63
2022-08-12T08:09:22.432Z,3.33
2022-08-12T08:12:08.539Z,2.38
2022-08-12T08:14:35.704Z,2.47
2022-08-12T08:17:06.741Z,2.53
2022-08-12T08:20:02.069Z,2.08
2022-08-12T08:22:33.391Z,2.00
2022-08-12T08:25:34.690Z,2.33
2022-08-12T08:28:00.445Z,2.60
2022-08-12T08:30:29.027Z,2.78
2022-08-12T08:32:56.672Z,2.58
2022-08-12T08:35:25.153Z,2.03
2022-08-12T08:37:53.298Z,2.00
2022-08-12T08:40:55.548Z,1.90
2022-08-12T08:43:22.673Z,1.90
2022-08-12T08:45:49.774Z,2.28
2022-08-12T08:48:17.993Z,1.90
2022-08-12T08:50:45.511Z,2.50
2022-08-12T08:53:31.085Z,2.00
2022-08-12T08:56:05.084Z,2.03
2022-08-12T08:58:32.684Z,2.10
2022-08-12T09:01:00.845Z,1.60
2022-08-12T09:05:09.367Z,1.80
2022-08-12T09:06:17.147Z,1.85
2022-08-12T09:08:46.364Z,2.58
2022-08-12T09:12:06.889Z,3.10
2022-08-12T09:14:29.456Z,2.10
2022-08-12T09:16:56.638Z,1.80
2022-08-12T09:19:27.714Z,1.80
2022-08-12T09:21:55.461Z,1.83
2022-08-12T09:24:22.685Z,1.60
2022-08-12T09:26:54.754Z,1.90
2022-08-12T09:30:08.893Z,2.00
2022-08-12T09:32:29.334Z,1.85
2022-08-12T09:34:57.589Z,1.83
2022-08-12T09:37:26.866Z,1.55
2022-08-12T09:40:04.447Z,1.70
2022-08-12T09:43:17.506Z,2.65
2022-08-12T09:46:11.963Z,1.48
2022-08-12T09:48:39.959Z,1.88
2022-08-12T09:51:21.625Z,1.50
2022-08-12T09:54:08.952Z,1.80
2022-08-12T09:57:02.633Z,1.80
2022-08-12T10:00:15.757Z,1.40
2022-08-12T10:02:44.517Z,1.30
2022-08-12T10:05:02.273Z,1.83
2022-08-12T10:07:39.325Z,1.10
2022-08-12T10:10:24.920Z,1.23
2022-08-12T10:13:12.552Z,1.30
2022-08-12T10:16:02.601Z,1.20
2022-08-12T10:18:32.120Z,1.10
2022-08-12T10:20:59.497Z,1.00
2022-08-12T10:23:40.382Z,1.30
2022-08-12T10:26:37.944Z,1.17
2022-08-12T10:30:40.898Z,0.80
2022-08-12T10:32:44.946Z,0.95
2022-08-12T10:35:09.537Z,1.20
2022-08-12T10:38:36.464Z,1.08
2022-08-12T10:40:31.426Z,1.20
2022-08-12T10:43:18.186Z,1.20
2022-08-12T10:45:49.271Z,1.10
2022-08-12T10:48:27.034Z,0.93
2022-08-12T10:52:04.435Z,1.20
2022-08-12T10:54:00.321Z,1.00
2022-08-12T10:56:35.000Z,0.90
2022-08-12T10:59:10.807Z,0.82
2022-08-12T11:04:31.292Z,0.98
2022-08-12T11:04:41.434Z,1.10
2022-08-12T11:08:35.854Z,0.90
2022-08-12T11:10:02.432Z,0.90
2022-08-12T11:12:55.298Z,1.08
2022-08-12T11:15:33.295Z,1.10
2022-08-12T11:18:12.048Z,1.70
2022-08-12T11:20:45.395Z,1.90
2022-08-12T11:23:25.777Z,1.00
2022-08-12T11:26:05.461Z,0.80
2022-08-12T11:28:37.649Z,0.80
2022-08-12T11:34:05.620Z,0.80
2022-08-12T11:36:30.788Z,0.70
2022-08-12T11:38:58.132Z,0.90
2022-08-12T11:41:31.131Z,0.70
2022-08-12T11:44:35.090Z,0.80
2022-08-12T11:46:53.329Z,0.75
2022-08-12T11:49:30.847Z,1.02
2022-08-12T11:52:03.124Z,0.80
2022-08-12T11:54:31.249Z,0.68
2022-08-12T11:57:02.719Z,0.50
2022-08-12T12:02:20.468Z,0.90
2022-08-12T12:04:52.771Z,0.70
2022-08-12T12:08:35.909Z,0.80
2022-08-12T12:10:18.258Z,0.80
2022-08-12T12:12:50.163Z,0.70
2022-08-12T12:15:25.310Z,0.80
2022-08-12T12:18:05.867Z,0.70
2022-08-12T12:20:34.805Z,1.33
2022-08-12T12:23:01.807Z,1.00
2022-08-12T12:25:59.458Z,1.25
2022-08-12T12:28:37.272Z,1.30
2022-08-12T12:31:04.080Z,0.80
2022-08-12T12:33:57.413Z,1.13
2022-08-12T12:36:24.020Z,1.80
2022-08-12T12:38:56.959Z,1.20
2022-08-12T12:42:40.619Z,1.00
2022-08-12T12:44:13.350Z,1.02
2022-08-12T12:46:54.757Z,0.98
2022-08-12T12:49:26.310Z,1.63
2022-08-12T12:52:18.384Z,1.10
2022-08-12T12:54:52.805Z,0.90
2022-08-12T12:57:21.600Z,0.80
2022-08-12T13:00:17.004Z,0.90
2022-08-12T13:02:55.593Z,0.70
2022-08-12T13:05:27.696Z,1.00
2022-08-12T13:08:00.810Z,1.00
2022-08-12T13:10:36.621Z,0.90
2022-08-12T13:14:08.069Z,1.02
2022-08-12T13:15:52.575Z,0.90
2022-08-12T13:18:19.875Z,1.30
2022-08-12T13:20:59.490Z,1.13
2022-08-12T13:23:36.182Z,1.40
2022-08-12T13:26:04.094Z,1.30
2022-08-12T13:28:31.909Z,1.45
2022-08-12T13:30:59.828Z,1.02
2022-08-12T13:33:28.508Z,1.25
2022-08-12T13:36:04.979Z,1.67
2022-08-12T13:38:44.951Z,1.50
2022-08-12T13:41:33.545Z,1.20
2022-08-12T13:44:02.097Z,1.30
2022-08-12T13:46:29.112Z,1.25
2022-08-12T13:48:57.521Z,1.48
2022-08-12T13:51:24.995Z,1.30
2022-08-12T13:54:11.662Z,1.50
2022-08-12T13:56:40.888Z,1.17
2022-08-12T13:59:08.771Z,1.38
2022-08-12T14:01:40.632Z,1.40
2022-08-12T14:04:12.400Z,1.27
2022-08-12T14:06:40.464Z,1.20
2022-08-12T14:09:17.261Z,1.30
2022-08-12T14:11:59.216Z,1.38
2022-08-12T14:14:31.387Z,1.08
2022-08-12T14:17:05.735Z,1.13
2022-08-12T14:19:45.132Z,1.60
2022-08-12T14:22:20.224Z,1.30
2022-08-12T14:24:47.284Z,1.20
2022-08-12T14:27:14.286Z,1.52
2022-08-12T14:30:15.496Z,1.33
2022-08-12T14:32:44.295Z,1.50
2022-08-12T14:35:12.366Z,1.52
2022-08-12T14:37:57.246Z,1.50
2022-08-12T14:40:29.832Z,1.58
2022-08-12T14:42:58.577Z,1.25
2022-08-12T14:45:45.015Z,1.58
2022-08-12T14:48:15.351Z,1.40
2022-08-12T14:52:07.940Z,1.40
2022-08-12T14:57:18.896Z,1.75
2022-08-12T14:59:26.673Z,1.50
2022-08-12T15:02:14.776Z,1.48
2022-08-12T15:04:42.161Z,1.52
2022-08-12T15:07:33.491Z,1.95
2022-08-12T15:10:01.573Z,1.75
2022-08-12T15:12:28.845Z,1.70
2022-08-12T15:14:59.906Z,1.77
2022-08-12T15:17:47.729Z,1.23
2022-08-12T15:20:32.918Z,1.40
2022-08-12T15:23:02.458Z,1.58
2022-08-12T15:25:30.653Z,1.45
2022-08-12T15:28:21.506Z,1.38
2022-08-12T15:33:24.164Z,1.63
2022-08-12T15:35:53.813Z,1.60
2022-08-12T15:38:27.426Z,1.85
2022-08-12T15:40:56.549Z,1.38
2022-08-12T15:43:51.976Z,1.40
2022-08-12T15:46:25.546Z,1.35
2022-08-12T15:48:52.763Z,1.50
2022-08-12T15:51:57.371Z,1.83
2022-08-12T15:54:33.569Z,1.50
2022-08-12T15:57:08.330Z,1.50
2022-08-12T16:00:00.630Z,1.73
2022-08-12T16:02:26.916Z,2.40
2022-08-12T16:04:55.120Z,1.67
2022-08-12T16:07:25.898Z,1.75
2022-08-12T16:10:05.350Z,2.08
2022-08-12T16:12:39.693Z,1.80
2022-08-12T16:15:08.403Z,1.77
2022-08-12T16:18:14.468Z,2.40
2022-08-12T16:20:33.314Z,1.80
2022-08-12T16:23:26.689Z,1.92
2022-08-12T16:26:05.357Z,1.70
2022-08-12T16:28:33.645Z,1.45
2022-08-12T16:31:02.044Z,1.20
2022-08-12T16:33:58.678Z,1.73
2022-08-12T16:36:25.639Z,1.50
2022-08-12T16:38:53.041Z,1.70
2022-08-12T16:41:20.068Z,1.75
2022-08-12T16:43:47.823Z,1.80
2022-08-12T16:46:32.401Z,1.83
2022-08-12T16:49:08.932Z,1.83
2022-08-12T16:51:46.827Z,1.73
2022-08-12T16:54:19.179Z,2.03
2022-08-12T16:56:50.834Z,2.17
2022-08-12T16:59:53.495Z,1.90
2022-08-12T17:02:31.806Z,2.03
2022-08-12T17:05:05.130Z,2.58
2022-08-12T17:07:43.437Z,3.53
2022-08-12T17:10:18.568Z,2.15
2022-08-12T17:13:02.006Z,3.65
2022-08-12T17:15:57.916Z,3.35
2022-08-12T17:18:42.733Z,3.60
2022-08-12T17:21:17.556Z,3.40
2022-08-12T17:23:54.298Z,2.50
2022-08-12T17:26:31.122Z,2.30
2022-08-12T17:28:59.823Z,2.83
2022-08-12T17:31:59.941Z,2.80
2022-08-12T17:34:36.158Z,3.60
2022-08-12T17:37:06.456Z,2.40
2022-08-12T17:40:12.501Z,3.17
2022-08-12T17:42:34.655Z,2.15
2022-08-12T17:45:17.165Z,2.35
2022-08-12T17:48:04.701Z,2.58
2022-08-12T17:50:38.097Z,2.00
2022-08-12T17:53:08.133Z,2.00
2022-08-12T17:55:47.453Z,2.73
2022-08-12T17:58:21.638Z,2.35
2022-08-12T18:01:03.823Z,2.22
2022-08-12T18:03:58.233Z,3.22
2022-08-12T18:06:18.720Z,4.28
2022-08-12T18:08:58.792Z,2.80
2022-08-12T18:12:06.137Z,3.15
2022-08-12T18:14:36.887Z,2.42
2022-08-12T18:20:05.022Z,2.13
2022-08-12T18:22:31.330Z,2.30
2022-08-12T18:25:06.343Z,2.97
2022-08-12T18:27:46.815Z,3.03
2022-08-12T18:30:20.513Z,4.00
2022-08-12T18:32:58.605Z,2.65
2022-08-12T18:35:29.950Z,4.18
2022-08-12T18:38:16.631Z,3.17
2022-08-12T18:41:06.120Z,2.60
2022-08-12T18:43:37.020Z,3.38
2022-08-12T18:46:29.990Z,2.80
2022-08-12T18:49:17.006Z,2.50
2022-08-12T18:51:55.605Z,4.72
2022-08-12T18:54:32.230Z,3.20
2022-08-12T18:57:02.234Z,3.58
2022-08-12T19:00:01.992Z,2.58
2022-08-12T19:02:21.685Z,2.97
2022-08-12T19:04:53.120Z,2.13
2022-08-12T19:07:29.778Z,2.67
2022-08-12T19:10:13.866Z,2.88
2022-08-12T19:13:01.214Z,2.70
2022-08-12T19:15:30.180Z,4.40
2022-08-12T19:18:02.374Z,3.10
2022-08-12T19:20:30.794Z,3.60
2022-08-12T19:23:02.419Z,4.00
2022-08-12T19:25:59.694Z,4.00
2022-08-12T19:28:29.570Z,5.20
2022-08-12T19:31:45.214Z,4.85
2022-08-12T19:37:38.653Z,5.32
2022-08-12T19:40:32.590Z,4.72
2022-08-12T19:43:17.886Z,5.38
2022-08-12T19:45:53.682Z,5.25
2022-08-12T19:48:22.863Z,6.00
2022-08-12T19:50:53.581Z,6.00
2022-08-12T19:53:27.403Z,5.90
2022-08-12T19:55:57.158Z,5.80
2022-08-12T19:58:25.335Z,5.43
2022-08-12T20:00:55.246Z,5.00
2022-08-12T20:03:39.492Z,5.72
2022-08-12T20:06:14.068Z,5.20
2022-08-12T20:08:48.880Z,6.30
2022-08-12T20:12:10.088Z,6.20
2022-08-12T20:14:07.577Z,5.05
2022-08-12T20:19:52.086Z,5.80
2022-08-12T20:22:24.270Z,5.70
2022-08-12T20:25:01.361Z,5.82
2022-08-12T20:28:03.075Z,4.97
2022-08-12T20:30:16.435Z,4.80
2022-08-12T20:32:57.401Z,4.93
2022-08-12T20:35:38.865Z,5.35
2022-08-12T20:38:26.975Z,5.15
2022-08-12T20:40:55.586Z,4.90
2022-08-12T20:43:24.190Z,5.03
2022-08-12T20:45:57.696Z,5.00
2022-08-12T20:48:29.365Z,4.93
2022-08-12T20:51:04.467Z,4.70
2022-08-12T20:53:57.869Z,4.65
2022-08-12T20:56:30.859Z,5.22
2022-08-12T20:59:00.150Z,5.75
2022-08-12T21:01:36.686Z,5.45
2022-08-12T21:04:35.323Z,5.72
2022-08-12T21:07:09.356Z,5.55
2022-08-12T21:09:48.524Z,6.10
2022-08-12T21:12:28.039Z,5.75
2022-08-12T21:15:24.073Z,6.07
2022-08-12T21:18:00.532Z,5.57
2022-08-12T21:20:34.887Z,6.90
2022-08-12T21:23:05.869Z,5.65
2022-08-12T21:25:44.199Z,5.93
2022-08-12T21:28:12.824Z,5.55
2022-08-12T21:31:11.722Z,5.50
2022-08-12T21:33:31.997Z,6.13
2022-08-12T21:36:22.318Z,6.45
2022-08-12T21:38:51.302Z,5.72
2022-08-12T21:41:20.356Z,8.18
2022-08-12T21:43:50.531Z,48.22
2022-08-12T21:46:34.601Z,27.98
2022-08-12T21:51:49.104Z,6.68
2022-08-12T21:54:24.463Z,6.50
2022-08-12T21:56:54.251Z,6.72
2022-08-12T21:59:22.084Z,7.10
2022-08-12T22:01:49.849Z,7.40
2022-08-12T22:04:36.311Z,8.27
2022-08-12T22:07:04.550Z,9.18
2022-08-12T22:09:42.775Z,7.68
2022-08-12T22:12:29.082Z,7.93
2022-08-12T22:14:56.462Z,7.75
2022-08-12T22:17:49.497Z,8.48
2022-08-12T22:20:18.126Z,7.68
2022-08-12T22:22:56.668Z,7.13
2022-08-12T22:25:27.916Z,10.05
2022-08-12T22:28:13.568Z,8.07
2022-08-12T22:30:59.532Z,7.25
2022-08-12T22:33:26.541Z,7.15
2022-08-12T22:35:59.755Z,8.23
2022-08-12T22:38:29.431Z,7.68
2022-08-12T22:41:02.058Z,7.45
2022-08-12T22:44:00.295Z,6.78
2022-08-12T22:46:52.696Z,9.05
2022-08-12T22:49:53.455Z,8.98
2022-08-12T22:52:26.126Z,7.68
2022-08-12T22:55:03.646Z,7.13
2022-08-12T22:57:53.598Z,7.05
2022-08-12T23:00:23.940Z,7.50
2022-08-12T23:02:56.862Z,7.93
2022-08-12T23:05:56.669Z,7.95
2022-08-12T23:08:17.584Z,7.65
2022-08-12T23:10:46.524Z,8.88
2022-08-12T23:13:43.831Z,9.10
2022-08-12T23:16:28.116Z,7.93
2022-08-12T23:19:01.580Z,7.35
2022-08-12T23:22:05.649Z,7.40
2022-08-12T23:24:30.772Z,7.53
2022-08-12T23:27:18.214Z,8.02
2022-08-12T23:29:59.352Z,7.88
2022-08-12T23:32:35.623Z,7.72
2022-08-12T23:35:06.500Z,8.02
2022-08-12T23:37:47.186Z,7.50
2022-08-12T23:40:22.121Z,8.13
2022-08-12T23:42:50.085Z,7.68
2022-08-12T23:45:20.470Z,7.05
2022-08-12T23:47:58.566Z,7.43
2022-08-12T23:50:33.709Z,7.25
2022-08-12T23:53:22.460Z,7.43
2022-08-12T23:55:50.606Z,7.63
2022-08-12T23:58:23.310Z,7.55
